Gillette Campbell County Airport
KGCC : now visible

Airfield :











YOU CAN JOIN US ON...

 
LOGIN :

Register | Disclaimer

   EN    FR    IT 

 









Legend :    VFR   Marginal VFR   IFR   Intensive IFR   Very Intensive IFR
Visi :
Ceiling :
>= 8 km
>= 3000ft
5 to 8 km
1000 to 3000 ft
1500m to 5 km
500 to 1000 ft
800 to 1500m
200 to 500 ft
< 800m
< 200 ft
Symbols :   Thunderstorms  Fog  Heavy snow  Heavy precipitations  Wind > 20 kt






- Airport Elevation : 4365 ft


KGCC - Gillette Campbell County

CURRENT METAR :
  • 190953Z AUTO 21016G26KT 10SM CLR 18/05 A2979 RMK AO2 PK WND 22030/0917 SLP029 T01830050

EXPIRED METARs :
  • 190853Z AUTO 21018G26KT 10SM CLR 19/04 A2980 RMK AO2 PK WND 19030/0814 SLP034 T01890044 58001
  • 190753Z AUTO 21021G29KT 10SM CLR 19/04 A2980 RMK AO2 PK WND 22029/0745 SLP031 T01940044

TAF KGCC
Valid from the 19 at 06:00 until the 20 at 06:00 UTC


190520Z 1906/2006 23018G28KT P6SM FEW150
FM191300 24015KT P6SM SCT150
FM192300 33020G30KT P6SM SCT060 BKN090
KZDV FIR / North America



MET'MAP, your aeronautical weather chart ! - Copyright ORBIFLY December 2007 - Disclaimer

ORBIFLY MET'MAP TEAM :

Programming & Development : Alexandra Zaïnal
Concept & original design : Baudouin d'Aumeries
Assistance for programming : Marc-Olivier Méhu
Technical & hardware support : Manuel Goepfert

Contact : metmap@orbifly.com




SOURCES & CREDITS :

   NOAA       Earth
Advisory